Time;durP1;ratioP1;P1;durP2;ratioP2;P2;SDS_P1;SDS_P2;PMS_P1;PMS_P2;Temp;Humidity;BMP_temperature;BMP_pressure;BME280_temperature;BME280_humidity;BME280_pressure;Samples;Min_cycle;Max_cycle;Signal;HPM_P1;HPM_P2
2021/05/26 03:53:42;;;;;;;5.22;2.85;;;;;;;15.95;100.00;101450.84;1695502;84;20993;-73
2021/05/26 03:56:52;;;;;;;6.78;2.65;;;;;;;16.13;100.00;101453.36;1694925;84;20997;-74
2021/05/26 03:59:21;;;;;;;2.92;2.22;;;;;;;16.21;100.00;101447.88;1695577;84;21677;-73
2021/05/26 04:01:53;;;;;;;3.90;2.52;;;;;;;16.33;100.00;101443.50;1664581;84;21017;-73
2021/05/26 04:04:21;;;;;;;4.55;2.83;;;;;;;16.40;100.00;101446.81;1695704;84;21096;-71
2021/05/26 04:06:49;;;;;;;3.72;2.33;;;;;;;16.47;100.00;101448.48;1695504;84;21511;-73
2021/05/26 04:09:20;;;;;;;2.72;2.08;;;;;;;16.56;100.00;101456.15;1695710;84;21103;-75
2021/05/26 04:11:49;;;;;;;6.65;2.50;;;;;;;16.62;100.00;101466.14;1664181;84;20946;-71
2021/05/26 04:14:23;;;;;;;4.55;2.20;;;;;;;16.70;100.00;101475.53;1691069;84;21076;-73
2021/05/26 04:17:07;;;;;;;4.70;2.50;;;;;;;16.76;100.00;101477.67;1690790;84;20966;-71
2021/05/26 04:19:37;;;;;;;2.58;1.95;;;;;;;16.85;100.00;101483.02;1693195;84;20905;-74
2021/05/26 04:22:06;;;;;;;3.85;2.20;;;;;;;16.91;100.00;101482.53;1695552;84;20954;-73
2021/05/26 04:24:36;;;;;;;4.45;2.17;;;;;;;16.95;100.00;101483.12;1695228;84;21516;-73
2021/05/26 04:27:04;;;;;;;2.90;2.30;;;;;;;16.99;100.00;101484.55;1695414;84;21005;-72
2021/05/26 04:29:32;;;;;;;5.92;2.37;;;;;;;17.02;99.75;101486.94;1695705;84;21677;-72
2021/05/26 04:32:01;;;;;;;4.33;2.35;;;;;;;17.05;99.58;101483.22;1664631;84;22482;-72
2021/05/26 04:34:29;;;;;;;11.85;3.00;;;;;;;17.08;99.44;101473.33;1695483;84;21001;-72
2021/05/26 04:36:56;;;;;;;7.35;2.33;;;;;;;17.10;99.27;101457.48;1695537;84;21547;-73
2021/05/26 04:39:23;;;;;;;3.92;2.37;;;;;;;17.13;99.13;101455.92;1695508;84;21057;-70
2021/05/26 04:41:50;;;;;;;4.45;2.50;;;;;;;17.16;99.10;101453.89;1695483;84;21530;-71
2021/05/26 04:44:17;;;;;;;38.90;24.90;;;;;;;17.21;99.10;101458.74;1695469;84;21094;-69
2021/05/26 04:46:45;;;;;;;6.37;4.83;;;;;;;17.27;98.90;101462.17;1735895;82;20911;-72
2021/05/26 04:49:14;;;;;;;4.35;3.27;;;;;;;17.31;98.57;101467.53;1695556;84;21077;-73
2021/05/26 04:51:41;;;;;;;3.92;2.95;;;;;;;17.34;98.27;101464.66;1695493;84;21637;-70
2021/05/26 04:54:08;;;;;;;4.75;2.77;;;;;;;17.39;98.29;101470.35;1695440;84;21455;-72
2021/05/26 04:56:35;;;;;;;7.40;2.67;;;;;;;17.44;98.15;101467.73;1695396;84;21707;-70
2021/05/26 04:59:03;;;;;;;2.95;2.30;;;;;;;17.50;97.74;101478.20;1695281;84;20962;-72
2021/05/26 05:01:30;;;;;;;5.05;2.77;;;;;;;17.55;97.26;101481.77;1695703;84;21705;-71
2021/05/26 05:03:57;;;;;;;5.42;2.17;;;;;;;17.61;97.05;101489.16;1695686;84;20893;-73
2021/05/26 05:06:24;;;;;;;5.50;2.37;;;;;;;17.66;96.51;101497.01;1695562;84;21012;-72
2021/05/26 05:08:51;;;;;;;3.72;2.42;;;;;;;17.73;96.18;101506.52;1695784;84;21092;-74
2021/05/26 05:11:19;;;;;;;6.00;2.75;;;;;;;17.80;96.03;101509.84;1695422;84;21084;-73
2021/05/26 05:13:49;;;;;;;4.60;2.02;;;;;;;17.90;95.38;101509.91;1695626;84;20926;-75
2021/05/26 05:16:16;;;;;;;3.42;1.95;;;;;;;17.97;94.97;101513.66;1697494;84;20921;-73
2021/05/26 05:18:45;;;;;;;3.42;2.20;;;;;;;18.02;94.14;101505.42;1697835;84;21009;-73
2021/05/26 05:21:11;;;;;;;5.85;3.12;;;;;;;18.06;93.67;101508.95;1667857;84;21142;-73
2021/05/26 05:23:39;;;;;;;2.20;2.00;;;;;;;18.12;93.47;101517.66;1697727;84;20961;-71
2021/05/26 05:26:06;;;;;;;4.67;2.55;;;;;;;18.19;92.85;101525.35;1697752;83;20930;-72
2021/05/26 05:28:34;;;;;;;4.37;1.80;;;;;;;18.25;92.03;101525.34;1697056;84;21029;-72
2021/05/26 05:31:01;;;;;;;1.80;1.52;;;;;;;18.29;91.80;101533.29;1695746;84;20969;-73
2021/05/26 05:33:30;;;;;;;4.30;1.90;;;;;;;18.34;91.23;101529.34;1695561;84;21116;-73
2021/05/26 05:35:59;;;;;;;4.45;1.80;;;;;;;18.40;90.20;101526.19;1695411;84;20937;-73
2021/05/26 05:38:26;;;;;;;2.87;1.37;;;;;;;18.45;89.35;101525.30;1695481;84;21029;-74
2021/05/26 05:40:53;;;;;;;2.42;1.57;;;;;;;18.48;88.37;101539.49;1695382;83;20910;-71
2021/05/26 05:43:20;;;;;;;5.33;2.00;;;;;;;18.54;87.49;101539.98;1631616;82;21096;-72
2021/05/26 05:45:47;;;;;;;3.83;1.25;;;;;;;18.59;87.18;101537.78;1694489;84;21029;-73
2021/05/26 05:48:14;;;;;;;2.80;1.30;;;;;;;18.64;87.24;101541.67;1694588;84;21053;-73
2021/05/26 05:50:41;;;;;;;2.60;1.37;;;;;;;18.69;86.99;101532.09;1694022;84;21076;-73
2021/05/26 05:53:09;;;;;;;1.98;1.30;;;;;;;18.75;86.54;101542.91;1691858;83;20985;-75
2021/05/26 05:55:36;;;;;;;4.25;1.22;;;;;;;18.80;86.23;101539.39;1686914;84;21233;-73
2021/05/26 05:58:03;;;;;;;3.55;1.37;;;;;;;18.85;85.52;101556.09;1686790;85;21737;-73
2021/05/26 06:00:33;;;;;;;6.03;1.52;;;;;;;18.89;85.25;101557.00;1685851;83;21048;-75
2021/05/26 06:03:01;;;;;;;4.95;1.30;;;;;;;18.96;85.03;101559.45;1679675;83;21075;-75
2021/05/26 06:05:30;;;;;;;2.37;1.50;;;;;;;19.02;84.90;101554.97;1683610;83;21013;-74
2021/05/26 06:07:58;;;;;;;1.75;0.93;;;;;;;19.10;85.05;101555.63;1727433;82;21625;-74
2021/05/26 06:10:26;;;;;;;3.05;1.10;;;;;;;19.18;84.79;101562.83;1727752;82;22337;-75
2021/05/26 06:12:58;;;;;;;2.90;1.47;;;;;;;19.22;84.34;101565.55;1726833;81;21043;-74
2021/05/26 06:15:24;;;;;;;2.92;1.80;;;;;;;19.26;83.74;101570.42;1727280;82;21659;-73
2021/05/26 06:17:51;;;;;;;1.62;1.40;;;;;;;19.29;83.69;101573.25;1727065;83;21365;-74
2021/05/26 06:20:20;;;;;;;1.70;1.22;;;;;;;19.32;83.34;101572.50;1727414;82;21060;-72
2021/05/26 06:22:48;;;;;;;4.45;1.10;;;;;;;19.38;83.12;101573.27;1727935;82;21077;-74
2021/05/26 06:25:15;;;;;;;3.08;1.10;;;;;;;19.48;83.10;101581.22;1727297;82;21111;-73
2021/05/26 06:27:42;;;;;;;1.77;0.80;;;;;;;19.56;80.36;101584.50;1727345;83;20964;-74
2021/05/26 06:30:13;;;;;;;1.10;1.00;;;;;;;19.58;79.30;101591.29;1727626;83;21068;-74
2021/05/26 06:32:41;;;;;;;1.32;1.17;;;;;;;19.56;78.77;101591.08;1727474;82;20963;-75
2021/05/26 06:35:10;;;;;;;1.47;0.98;;;;;;;19.57;78.96;101588.30;1727437;82;21062;-74
2021/05/26 06:37:37;;;;;;;4.22;1.17;;;;;;;19.60;78.52;101586.70;1727629;81;21071;-72
2021/05/26 06:40:07;;;;;;;1.57;0.90;;;;;;;19.68;78.52;101596.09;1725184;83;21660;-73
2021/05/26 06:42:34;;;;;;;1.27;0.80;;;;;;;19.79;78.44;101592.47;1727370;82;21067;-72
2021/05/26 06:45:04;;;;;;;2.45;1.05;;;;;;;19.87;77.94;101600.05;1727748;82;21588;-73
2021/05/26 06:47:31;;;;;;;1.77;0.93;;;;;;;19.90;77.30;101601.09;1723307;81;22043;-74
2021/05/26 06:49:59;;;;;;;1.75;1.10;;;;;;;19.94;76.62;101601.65;1721453;83;21044;-73
2021/05/26 06:52:27;;;;;;;7.25;1.40;;;;;;;19.95;76.33;101604.13;1721517;83;21705;-74
2021/05/26 06:54:55;;;;;;;2.95;1.27;;;;;;;19.98;74.94;101599.05;1758933;79;21074;-73
2021/05/26 06:57:23;;;;;;;2.50;1.10;;;;;;;19.98;74.98;101599.89;1740426;81;21073;-73
2021/05/26 06:59:52;;;;;;;3.25;1.20;;;;;;;20.00;74.92;101602.41;1733266;81;21426;-75
2021/05/26 07:02:20;;;;;;;3.95;1.27;;;;;;;20.02;74.54;101593.86;1723159;83;21012;-72
2021/05/26 07:04:49;;;;;;;1.95;1.10;;;;;;;20.05;74.93;101592.27;1722803;83;21092;-75
2021/05/26 07:07:17;;;;;;;0.90;0.88;;;;;;;20.15;75.26;101583.88;1723516;83;20980;-74
2021/05/26 07:09:44;;;;;;;1.27;0.82;;;;;;;20.23;73.59;101593.21;1722791;83;21092;-72
2021/05/26 07:12:11;;;;;;;1.25;0.90;;;;;;;20.26;73.89;101598.23;1723214;83;21048;-75
2021/05/26 07:14:39;;;;;;;2.30;0.80;;;;;;;20.35;72.53;101601.37;1722687;83;21160;-72
2021/05/26 07:17:06;;;;;;;2.98;1.20;;;;;;;20.43;71.82;101606.75;1722667;81;21124;-74
2021/05/26 07:19:35;;;;;;;1.50;0.90;;;;;;;20.44;71.24;101600.99;1723476;83;21720;-71
2021/05/26 07:22:03;;;;;;;0.85;0.75;;;;;;;20.49;71.71;101614.09;1723071;83;21147;-75
2021/05/26 07:24:31;;;;;;;1.00;0.90;;;;;;;20.60;70.96;101609.14;1723047;83;21987;-73
2021/05/26 07:27:02;;;;;;;0.95;0.85;;;;;;;20.71;69.67;101612.91;1722505;81;21099;-76
2021/05/26 07:29:29;;;;;;;1.75;1.10;;;;;;;20.74;69.34;101607.34;1722869;81;20940;-75
2021/05/26 07:31:57;;;;;;;1.40;0.70;;;;;;;20.75;69.39;101613.46;1723724;83;21043;-73
2021/05/26 07:34:24;;;;;;;3.42;1.00;;;;;;;20.79;68.53;101610.89;1723193;83;21040;-78
2021/05/26 07:36:54;;;;;;;3.72;1.10;;;;;;;20.82;68.68;101610.59;1722598;81;21107;-74
2021/05/26 07:39:23;;;;;;;2.45;0.93;;;;;;;20.86;68.52;101615.94;1722558;83;21063;-76
2021/05/26 07:41:52;;;;;;;2.17;0.98;;;;;;;20.84;68.61;101608.64;1722011;81;21164;-79
2021/05/26 07:44:28;;;;;;;4.78;1.32;;;;;;;20.87;68.73;101607.86;1721164;81;21246;-73
2021/05/26 07:46:55;;;;;;;3.50;1.20;;;;;;;20.95;68.22;101606.67;1730718;81;21661;-73
2021/05/26 07:49:23;;;;;;;3.30;1.20;;;;;;;21.04;68.78;101612.39;1730307;81;21628;-74
2021/05/26 07:51:54;;;;;;;3.40;1.70;;;;;;;21.12;69.10;101615.66;1729808;81;21055;-74
2021/05/26 07:54:23;;;;;;;3.95;1.57;;;;;;;21.23;69.37;101615.45;1719973;82;21092;-74
2021/05/26 07:56:51;;;;;;;1.37;1.22;;;;;;;21.34;69.51;101613.11;1718682;81;21191;-75
2021/05/26 07:59:19;;;;;;;1.32;0.82;;;;;;;21.41;67.90;101617.63;1718395;82;21116;-75
2021/05/26 08:01:47;;;;;;;2.55;1.00;;;;;;;21.35;66.55;101610.79;1718237;83;21177;-73
2021/05/26 08:04:14;;;;;;;1.32;1.20;;;;;;;21.25;66.66;101609.52;1718298;83;21681;-74
2021/05/26 08:06:42;;;;;;;3.40;1.00;;;;;;;21.26;66.89;101607.72;1718360;83;20992;-75
2021/05/26 08:09:09;;;;;;;1.32;0.80;;;;;;;21.31;66.86;101605.48;1716139;81;21019;-69
2021/05/26 08:11:41;;;;;;;2.00;0.80;;;;;;;21.43;66.15;101605.62;1658253;84;21146;-72
2021/05/26 08:14:11;;;;;;;0.98;0.70;;;;;;;21.52;65.20;101605.55;1726324;81;21089;-78
2021/05/26 08:16:38;;;;;;;2.90;0.80;;;;;;;21.61;65.25;101605.98;1726203;83;21078;-71
2021/05/26 08:19:05;;;;;;;2.10;1.00;;;;;;;21.71;65.24;101603.75;1725296;81;21082;-77
2021/05/26 08:21:33;;;;;;;1.42;1.00;;;;;;;21.70;62.71;101602.11;1725575;81;21057;-73
2021/05/26 08:24:06;;;;;;;3.33;1.02;;;;;;;21.63;63.38;101601.88;1725564;81;21650;-75
2021/05/26 08:26:35;;;;;;;0.90;0.80;;;;;;;21.64;62.87;101603.03;1725914;83;21125;-73
2021/05/26 08:29:04;;;;;;;2.87;0.80;;;;;;;21.70;61.91;101600.27;1725457;81;21653;-73
2021/05/26 08:31:32;;;;;;;4.90;0.80;;;;;;;21.79;60.48;101598.56;1725435;81;20978;-75
2021/05/26 08:34:00;;;;;;;3.42;0.90;;;;;;;21.89;61.33;101600.67;1737412;82;21164;-76
2021/05/26 08:36:28;;;;;;;2.17;1.02;;;;;;;21.96;61.86;101601.70;1692083;84;21112;-76
2021/05/26 08:38:55;;;;;;;2.35;0.95;;;;;;;22.05;62.33;101605.59;1699869;84;21145;-72
2021/05/26 08:41:23;;;;;;;3.42;0.90;;;;;;;22.08;61.81;101609.77;1699920;84;21022;-74
2021/05/26 08:43:52;;;;;;;2.85;1.10;;;;;;;22.10;62.53;101602.50;1691937;84;21112;-73
2021/05/26 08:46:18;;;;;;;1.10;0.82;;;;;;;22.17;61.08;101596.95;1699636;84;21090;-73
2021/05/26 08:48:46;;;;;;;2.20;0.90;;;;;;;22.17;59.61;101598.75;1699609;84;21152;-76
2021/05/26 08:51:17;;;;;;;1.40;0.80;;;;;;;22.11;60.51;101594.91;1699906;84;21163;-80
2021/05/26 08:53:44;;;;;;;1.17;0.73;;;;;;;22.17;60.01;101589.50;1697998;84;21041;-77
2021/05/26 08:56:13;;;;;;;3.20;1.12;;;;;;;22.24;59.85;101587.91;1685212;83;21729;-73
2021/05/26 08:58:40;;;;;;;2.70;0.85;;;;;;;22.34;60.59;101587.29;1739642;81;21034;-74
2021/05/26 09:01:07;;;;;;;1.30;0.98;;;;;;;22.50;61.57;101582.94;1739749;82;21127;-71
2021/05/26 09:03:35;;;;;;;2.77;1.15;;;;;;;22.63;61.98;101576.74;1739573;82;21076;-69
2021/05/26 09:06:05;;;;;;;2.12;1.60;;;;;;;22.75;60.53;101579.97;1685191;85;21685;-72
2021/05/26 09:08:33;;;;;;;2.67;1.02;;;;;;;22.87;60.00;101584.02;1740138;82;21685;-77
2021/05/26 09:11:02;;;;;;;6.03;0.90;;;;;;;22.98;59.86;101583.72;1739817;81;21663;-75
2021/05/26 09:13:41;;;;;;;1.12;0.85;;;;;;;23.05;60.52;101583.42;1739669;82;21056;-78
2021/05/26 09:16:12;;;;;;;3.37;1.05;;;;;;;23.11;60.11;101576.16;1738926;81;39797;-76
2021/05/26 09:19:03;;;;;;;3.02;1.12;;;;;;;23.18;59.20;101581.16;1723162;81;21142;-73
2021/05/26 09:21:47;;;;;;;2.37;1.00;;;;;;;23.27;58.22;101578.03;1726235;83;21050;-75
2021/05/26 09:24:25;;;;;;;1.32;0.70;;;;;;;23.36;56.46;101585.00;1722965;83;21113;-75
2021/05/26 09:27:06;;;;;;;1.70;0.80;;;;;;;23.43;57.15;101590.03;1724312;81;21015;-76
2021/05/26 09:29:37;;;;;;;2.87;0.80;;;;;;;23.59;56.88;101589.23;1727752;82;21055;-73
2021/05/26 09:32:27;;;;;;;1.07;0.50;;;;;;;23.69;55.77;101593.39;1728710;82;21065;-77
2021/05/26 09:34:57;;;;;;;1.00;0.60;;;;;;;23.79;55.32;101593.73;1728462;83;21126;-74
2021/05/26 09:37:28;;;;;;;0.82;0.62;;;;;;;23.81;52.83;101597.88;1728461;82;21134;-77
2021/05/26 09:40:03;;;;;;;2.15;0.57;;;;;;;23.81;53.01;101589.92;1729225;81;20980;-71
2021/05/26 09:42:38;;;;;;;0.75;0.50;;;;;;;23.88;52.00;101590.09;1729098;83;20999;-71
2021/05/26 09:45:14;;;;;;;1.40;1.07;;;;;;;23.88;50.63;101586.11;1729041;81;20949;-73
2021/05/26 09:47:53;;;;;;;1.37;0.80;;;;;;;23.86;50.50;101592.09;1728649;81;21009;-74
2021/05/26 09:50:30;;;;;;;3.37;0.80;;;;;;;23.90;51.29;101593.42;1729159;81;21131;-74
2021/05/26 09:53:08;;;;;;;4.17;0.60;;;;;;;23.98;51.13;101586.78;1729469;81;21138;-77
2021/05/26 09:55:42;;;;;;;1.27;0.70;;;;;;;24.15;49.32;101585.83;1745697;81;21064;-73
2021/05/26 09:58:11;;;;;;;2.05;0.60;;;;;;;25.17;46.42;101584.58;1751451;82;20930;-73
2021/05/26 10:00:40;;;;;;;1.32;0.53;;;;;;;26.24;45.11;101579.19;1749752;81;21021;-71
2021/05/26 10:03:07;;;;;;;1.98;0.50;;;;;;;26.85;39.68;101579.39;1750002;81;21060;-76
2021/05/26 10:05:35;;;;;;;0.62;0.45;;;;;;;26.71;39.79;101578.35;1749287;82;20980;-72
2021/05/26 10:08:21;;;;;;;1.35;0.68;;;;;;;27.00;39.35;101575.37;1748940;81;21104;-76
2021/05/26 10:11:04;;;;;;;0.40;0.40;;;;;;;27.68;37.47;101574.93;1744679;82;21089;-77
2021/05/26 10:13:33;;;;;;;1.40;0.53;;;;;;;28.37;36.88;101567.41;1748831;82;21049;-70
2021/05/26 10:16:01;;;;;;;0.70;0.45;;;;;;;29.26;35.52;101570.17;1748958;81;21574;-70
2021/05/26 10:18:31;;;;;;;1.07;0.55;;;;;;;29.62;33.05;101569.30;1745988;81;21032;-70
2021/05/26 10:21:00;;;;;;;0.70;0.50;;;;;;;29.30;34.62;101568.22;1746005;81;20941;-79
2021/05/26 10:23:28;;;;;;;1.75;0.80;;;;;;;29.17;33.81;101568.66;1701764;83;21028;-72
2021/05/26 10:25:55;;;;;;;1.67;1.00;;;;;;;29.05;34.03;101574.27;1697742;84;21633;-79
2021/05/26 10:28:27;;;;;;;2.85;0.70;;;;;;;28.25;35.01;101567.65;1718494;83;21567;-76
2021/05/26 10:30:56;;;;;;;1.02;0.68;;;;;;;27.73;37.13;101574.67;1713858;83;21021;-73
2021/05/26 10:33:45;;;;;;;1.47;0.60;;;;;;;27.53;36.68;101569.67;1693122;84;21113;-78
2021/05/26 10:36:14;;;;;;;0.42;0.42;;;;;;;27.31;36.89;101562.11;1693491;83;21086;-70
2021/05/26 10:39:00;;;;;;;3.42;0.68;;;;;;;27.08;37.83;101563.29;1693153;84;21042;-76
2021/05/26 10:41:51;;;;;;;5.20;0.90;;;;;;;26.74;37.54;101562.00;1693125;84;21162;-73
2021/05/26 10:44:20;;;;;;;1.05;0.75;;;;;;;26.30;39.22;101558.50;1692888;83;21110;-74
2021/05/26 10:46:56;;;;;;;1.35;0.75;;;;;;;26.19;39.92;101551.81;1706923;82;21074;-77
2021/05/26 10:49:28;;;;;;;2.50;0.72;;;;;;;26.10;40.24;101556.83;1679381;82;21066;-71
2021/05/26 10:51:57;;;;;;;2.85;0.82;;;;;;;26.00;39.60;101554.12;1719092;81;21884;-70
2021/05/26 10:54:45;;;;;;;1.32;0.80;;;;;;;25.90;40.04;101542.91;1753406;81;21470;-73
2021/05/26 10:57:13;;;;;;;1.80;0.60;;;;;;;25.88;40.09;101544.40;1734451;82;21089;-75
2021/05/26 10:59:40;;;;;;;2.33;0.72;;;;;;;25.91;39.36;101544.56;1734197;82;21080;-75
2021/05/26 11:02:09;;;;;;;0.68;0.57;;;;;;;25.92;39.05;101540.88;1734279;82;21099;-75
2021/05/26 11:04:39;;;;;;;3.42;0.78;;;;;;;25.85;39.45;101540.77;1734116;81;21096;-78
2021/05/26 11:07:23;;;;;;;2.80;0.80;;;;;;;25.63;40.78;101545.60;1714894;83;21008;-74
2021/05/26 11:10:10;;;;;;;1.10;0.60;;;;;;;25.62;40.69;101534.14;1714310;83;20982;-76
2021/05/26 11:12:59;;;;;;;1.98;0.60;;;;;;;25.77;40.71;101532.88;1682069;85;21724;-72
2021/05/26 11:15:45;;;;;;;2.30;0.60;;;;;;;25.71;41.28;101529.11;1684763;85;21041;-71
2021/05/26 11:20:53;;;;;;;0.75;0.50;;;;;;;26.16;41.59;101534.05;1684741;83;21706;-73
2021/05/26 11:23:20;;;;;;;1.87;0.80;;;;;;;26.20;40.60;101539.31;1684924;85;21586;-79
2021/05/26 11:25:55;;;;;;;1.57;0.90;;;;;;;26.08;41.13;101532.75;1684760;85;21004;-73
2021/05/26 11:28:32;;;;;;;3.27;0.88;;;;;;;26.05;42.22;101535.77;1685399;85;21303;-72
2021/05/26 11:31:07;;;;;;;0.93;0.70;;;;;;;26.06;42.46;101531.62;1688000;85;20961;-78
2021/05/26 11:33:36;;;;;;;0.82;0.65;;;;;;;26.12;42.69;101533.55;1688173;85;21158;-73
2021/05/26 11:36:11;;;;;;;4.97;1.25;;;;;;;26.05;42.31;101529.13;1687513;85;21084;-74
2021/05/26 11:38:34;;;;;;;1.37;0.57;;;;;;;26.06;43.44;101528.96;1684940;85;21139;-70
2021/05/26 11:41:16;;;;;;;2.15;0.90;;;;;;;26.08;43.20;101527.44;1685234;85;21350;-75
2021/05/26 11:43:45;;;;;;;1.40;0.88;;;;;;;26.15;44.37;101529.70;1684557;85;21013;-79
2021/05/26 11:46:14;;;;;;;0.80;0.57;;;;;;;26.24;44.50;101532.63;1685525;85;21120;-76
2021/05/26 11:48:47;;;;;;;0.75;0.60;;;;;;;26.20;42.67;101532.16;1685098;85;21101;-73
2021/05/26 11:51:25;;;;;;;0.80;0.60;;;;;;;25.94;42.88;101537.03;1685045;85;21170;-72
2021/05/26 11:54:02;;;;;;;0.50;0.50;;;;;;;25.89;43.90;101538.58;1684898;85;21693;-73
2021/05/26 11:56:29;;;;;;;1.40;0.60;;;;;;;25.99;43.29;101538.66;1703994;83;21676;-73
2021/05/26 11:58:56;;;;;;;1.37;0.70;;;;;;;26.27;43.42;101532.26;1708035;82;21120;-76
2021/05/26 12:01:32;;;;;;;0.80;0.70;;;;;;;26.83;42.70;101533.48;1708130;82;21149;-86
2021/05/26 12:03:59;;;;;;;2.72;0.70;;;;;;;27.11;41.82;101533.10;1708519;83;21058;-76
2021/05/26 12:06:29;;;;;;;3.70;0.80;;;;;;;27.13;41.02;101531.06;1688596;83;21011;-72
2021/05/26 12:08:56;;;;;;;2.22;0.70;;;;;;;27.09;40.84;101532.45;1688018;83;21083;-70
2021/05/26 12:11:23;;;;;;;0.88;0.60;;;;;;;27.00;40.15;101530.08;1707945;83;21038;-75
2021/05/26 12:13:52;;;;;;;2.00;0.68;;;;;;;26.88;40.87;101527.08;1688445;83;21003;-75
2021/05/26 12:16:21;;;;;;;0.70;0.40;;;;;;;26.78;41.50;101525.17;1708170;82;21676;-73
2021/05/26 12:19:01;;;;;;;3.75;0.60;;;;;;;26.58;40.94;101519.59;1708045;83;21031;-73
2021/05/26 12:21:28;;;;;;;0.88;0.50;;;;;;;26.44;42.96;101518.28;1707106;83;21035;-73
2021/05/26 12:24:01;;;;;;;2.75;0.93;;;;;;;26.29;44.54;101513.77;1708446;82;21019;-80
2021/05/26 12:26:35;;;;;;;1.50;0.70;;;;;;;26.13;45.09;101519.22;1708355;83;21063;-76
2021/05/26 12:29:12;;;;;;;3.47;0.70;;;;;;;26.05;45.04;101511.84;1709239;82;21087;-76
2021/05/26 12:31:37;;;;;;;1.80;0.68;;;;;;;26.04;46.11;101508.84;1707732;83;21063;-72
2021/05/26 12:34:15;;;;;;;1.30;0.55;;;;;;;26.04;46.04;101510.17;1708315;82;21003;-78
2021/05/26 12:36:52;;;;;;;0.50;0.50;;;;;;;26.02;46.66;101509.53;1708162;83;21313;-73
2021/05/26 12:39:22;;;;;;;0.93;0.70;;;;;;;26.06;47.11;101506.84;1708502;83;21531;-76
2021/05/26 12:41:51;;;;;;;1.62;0.68;;;;;;;26.08;46.73;101507.48;1709952;83;21152;-71
2021/05/26 12:44:22;;;;;;;2.27;0.75;;;;;;;26.11;46.73;101503.12;1709855;83;21004;-75
2021/05/26 12:46:52;;;;;;;2.37;0.70;;;;;;;26.09;47.05;101502.48;1710272;82;20880;-76
2021/05/26 12:49:36;;;;;;;0.72;0.62;;;;;;;26.23;47.92;101500.36;1709912;83;21020;-71
2021/05/26 12:52:11;;;;;;;0.70;0.60;;;;;;;26.38;46.80;101499.05;1710251;83;26937;-73
2021/05/26 12:54:46;;;;;;;0.65;0.65;;;;;;;26.48;46.33;101496.94;1709949;83;21111;-69
2021/05/26 12:57:20;;;;;;;1.15;0.68;;;;;;;26.41;46.62;101498.69;1712639;83;20984;-75
2021/05/26 12:59:54;;;;;;;3.45;0.95;;;;;;;26.35;47.42;101500.25;1713861;80;20889;-76
2021/05/26 13:02:32;;;;;;;1.12;0.60;;;;;;;26.42;47.66;101501.14;1712698;83;20940;-70
2021/05/26 13:05:00;;;;;;;1.87;0.60;;;;;;;26.51;46.60;101505.39;1710486;83;20999;-70
2021/05/26 13:07:44;;;;;;;1.12;0.70;;;;;;;26.52;46.70;101499.03;1710037;83;21166;-71
2021/05/26 13:10:26;;;;;;;2.08;0.80;;;;;;;26.53;47.46;101495.88;1709816;83;20960;-71
2021/05/26 13:13:30;;;;;;;0.62;0.60;;;;;;;26.63;47.85;101501.74;1709785;82;21556;-73
2021/05/26 13:16:15;;;;;;;2.65;0.80;;;;;;;26.67;46.57;101496.38;1709889;83;20987;-75
2021/05/26 13:18:43;;;;;;;3.47;0.70;;;;;;;26.42;47.14;101495.82;1709993;82;21557;-79
2021/05/26 13:21:10;;;;;;;4.37;0.80;;;;;;;26.43;48.61;101494.82;1710133;83;21043;-71
2021/05/26 13:23:38;;;;;;;1.02;0.65;;;;;;;26.49;47.84;101498.58;1709990;83;21003;-76
2021/05/26 13:26:06;;;;;;;1.50;0.60;;;;;;;26.40;47.37;101496.52;1709821;83;21111;-75
2021/05/26 13:28:38;;;;;;;1.42;0.75;;;;;;;26.40;47.73;101496.52;1710115;83;21043;-74
2021/05/26 13:31:04;;;;;;;3.50;0.80;;;;;;;26.62;47.09;101498.25;1710239;82;21024;-81
2021/05/26 13:33:32;;;;;;;1.37;0.70;;;;;;;26.71;47.12;101505.62;1710126;82;21110;-71
2021/05/26 13:36:00;;;;;;;2.65;0.90;;;;;;;26.78;46.52;101494.05;1710102;82;21055;-70
2021/05/26 13:38:28;;;;;;;1.02;0.80;;;;;;;26.78;46.73;101487.39;1710396;83;20916;-75
2021/05/26 13:40:57;;;;;;;1.92;1.20;;;;;;;26.65;46.53;101485.06;1710275;83;20924;-75
2021/05/26 13:43:27;;;;;;;2.10;0.70;;;;;;;26.53;46.97;101495.38;1710415;83;20943;-72
2021/05/26 13:45:54;;;;;;;0.78;0.60;;;;;;;26.40;46.76;101491.20;1710055;83;21149;-76
2021/05/26 13:48:22;;;;;;;1.77;0.70;;;;;;;26.16;47.57;101494.14;1710141;83;20920;-74
2021/05/26 13:50:49;;;;;;;3.40;0.98;;;;;;;26.15;47.58;101489.29;1710287;82;20876;-76
2021/05/26 13:53:17;;;;;;;1.37;0.93;;;;;;;26.56;47.65;101496.33;1710379;82;21000;-73
2021/05/26 13:55:45;;;;;;;2.50;1.00;;;;;;;27.37;45.94;101491.24;1704122;83;21594;-75
2021/05/26 13:58:12;;;;;;;2.42;0.90;;;;;;;28.28;43.83;101477.83;1686772;85;20993;-70
2021/05/26 14:00:41;;;;;;;1.80;0.72;;;;;;;29.25;41.62;101482.97;1686737;85;20981;-72
2021/05/26 14:03:12;;;;;;;0.90;0.60;;;;;;;29.89;38.93;101480.03;1687080;85;20914;-70
2021/05/26 14:05:41;;;;;;;2.55;0.70;;;;;;;29.64;38.84;101480.84;1686903;85;21574;-76
2021/05/26 14:08:08;;;;;;;1.22;0.70;;;;;;;28.88;39.14;101479.75;1686907;85;20949;-72
2021/05/26 14:10:37;;;;;;;6.17;0.68;;;;;;;27.95;40.83;101479.45;1686853;85;21120;-72
2021/05/26 14:13:04;;;;;;;1.45;0.70;;;;;;;27.26;42.47;101483.73;1686810;85;20974;-73
2021/05/26 14:15:32;;;;;;;1.67;0.80;;;;;;;26.93;43.01;101487.37;1686871;85;20911;-71
2021/05/26 14:18:01;;;;;;;0.65;0.42;;;;;;;26.66;44.40;101483.56;1686993;85;20938;-74
2021/05/26 14:20:29;;;;;;;2.77;0.82;;;;;;;26.52;45.26;101479.06;1686866;85;20957;-73
2021/05/26 14:22:59;;;;;;;2.90;0.65;;;;;;;26.40;45.61;101480.55;1687021;84;21166;-72
2021/05/26 14:25:26;;;;;;;2.25;0.80;;;;;;;26.28;45.64;101481.53;1689126;85;20993;-74
2021/05/26 14:27:55;;;;;;;1.40;0.85;;;;;;;26.14;46.26;101483.63;1689534;85;20998;-77
2021/05/26 14:30:22;;;;;;;1.45;0.70;;;;;;;26.30;46.29;101478.67;1688250;85;21069;-73
2021/05/26 14:32:49;;;;;;;1.00;0.70;;;;;;;26.40;46.61;101482.38;1686964;85;21096;-73
2021/05/26 14:35:20;;;;;;;1.77;0.80;;;;;;;26.33;46.30;101483.63;1686854;85;21099;-71
2021/05/26 14:37:55;;;;;;;1.30;0.50;;;;;;;26.30;45.68;101485.32;1686742;85;21062;-77
2021/05/26 14:40:18;;;;;;;;;;;;;;;26.27;45.05;101479.04;1688715;85;20914;-74
2021/05/26 14:42:46;;;;;;;2.17;0.68;;;;;;;26.13;44.24;101475.85;1677178;85;20214;-70
2021/05/26 14:45:16;;;;;;;3.12;1.05;;;;;;;25.90;43.66;101481.73;1716622;83;21001;-71
2021/05/26 14:47:43;;;;;;;2.20;0.72;;;;;;;25.72;43.00;101479.39;1716879;83;21090;-72
2021/05/26 14:50:13;;;;;;;4.15;1.22;;;;;;;25.76;42.96;101478.03;1716776;83;21420;-75
2021/05/26 14:52:41;;;;;;;1.50;0.70;;;;;;;26.01;43.10;101468.80;1716866;82;20957;-76
2021/05/26 14:55:10;;;;;;;0.88;0.65;;;;;;;26.27;41.76;101469.72;1716791;83;21012;-71
2021/05/26 14:57:37;;;;;;;6.30;0.90;;;;;;;26.26;40.29;101472.89;1716925;82;20996;-72
2021/05/26 15:00:06;;;;;;;1.20;0.50;;;;;;;26.27;40.71;101473.22;1716930;83;21094;-76
2021/05/26 15:02:34;;;;;;;0.50;0.42;;;;;;;26.18;40.20;101471.66;1717009;83;20964;-73
2021/05/26 15:05:01;;;;;;;1.30;0.70;;;;;;;25.98;40.57;101470.50;1717034;83;20992;-77
2021/05/26 15:07:32;;;;;;;1.37;0.60;;;;;;;25.75;41.39;101467.89;1717055;83;20936;-71
2021/05/26 15:09:59;;;;;;;1.60;0.70;;;;;;;25.63;42.05;101469.34;1717015;83;21072;-76
2021/05/26 15:12:26;;;;;;;3.17;0.70;;;;;;;25.46;42.39;101459.01;1717018;83;21073;-74
2021/05/26 15:14:56;;;;;;;2.47;0.75;;;;;;;25.30;43.00;101467.94;1716963;83;21151;-76
2021/05/26 15:17:25;;;;;;;2.50;0.55;;;;;;;25.17;43.25;101467.70;1716776;83;20962;-74
2021/05/26 15:19:52;;;;;;;1.72;0.70;;;;;;;25.17;43.53;101467.20;1716958;83;21331;-71
2021/05/26 15:22:19;;;;;;;0.93;0.70;;;;;;;25.13;43.17;101469.04;1717234;83;20928;-71
2021/05/26 15:24:47;;;;;;;0.68;0.50;;;;;;;25.03;42.94;101468.44;1717042;83;21588;-71
2021/05/26 15:27:14;;;;;;;1.60;0.68;;;;;;;24.88;40.87;101465.72;1717056;83;20981;-71
2021/05/26 15:29:41;;;;;;;2.02;0.70;;;;;;;24.65;42.37;101471.44;1717070;83;20933;-72
2021/05/26 15:32:11;;;;;;;1.67;0.70;;;;;;;24.57;43.44;101463.52;1717028;82;21020;-75
2021/05/26 15:34:38;;;;;;;2.90;0.80;;;;;;;24.58;44.54;101463.33;1717026;83;20921;-76